Terminal Aerodrome Forecast
Issued by NWS

Home | Current Version | Previous Version | Text Only | Print | Product List | Glossary On
Versions: 1 2 3 4 5 6 7 8 9 10 11 12 13
000
FTUS41 KAKQ 292337
TAFPHF
TAF
KPHF 292337Z 3000/3024 12004KT P6SM BKN250
     FM300500 00000KT P6SM BKN250
     FM301300 22005KT P6SM BKN150
     FM301800 18008KT P6SM BKN120=

USA.gov is the U.S. government's official web portal to all federal, state and local government web resources and services.